createdAt,value
2023-04-24T00:01:35.154Z,0.30
2023-04-24T00:04:41.258Z,0.20
2023-04-24T00:07:45.935Z,0.70
2023-04-24T00:10:50.190Z,0.40
2023-04-24T00:13:53.015Z,0.40
2023-04-24T00:16:55.758Z,0.32
2023-04-24T00:20:00.136Z,0.30
2023-04-24T00:23:02.940Z,0.30
2023-04-24T00:26:07.102Z,0.20
2023-04-24T00:29:09.994Z,0.25
2023-04-24T00:32:12.924Z,0.40
2023-04-24T00:35:15.980Z,0.40
2023-04-24T00:38:18.665Z,0.40
2023-04-24T00:41:22.952Z,0.25
2023-04-24T00:44:25.887Z,0.30
2023-04-24T00:47:29.016Z,0.65
2023-04-24T00:50:31.958Z,0.30
2023-04-24T00:53:34.678Z,0.30
2023-04-24T00:56:38.924Z,0.35
2023-04-24T00:59:42.161Z,0.30
2023-04-24T01:02:46.575Z,0.47
2023-04-24T01:05:49.840Z,0.50
2023-04-24T01:08:52.630Z,0.30
2023-04-24T01:11:57.598Z,0.55
2023-04-24T01:15:00.379Z,0.30
2023-04-24T01:18:03.444Z,0.35
2023-04-24T01:21:07.170Z,0.30
2023-04-24T01:24:11.255Z,0.40
2023-04-24T01:27:14.467Z,0.40
2023-04-24T01:30:17.150Z,0.32
2023-04-24T01:33:21.506Z,0.40
2023-04-24T01:36:27.218Z,0.30
2023-04-24T01:39:31.366Z,0.40
2023-04-24T01:42:34.291Z,0.20
2023-04-24T01:45:37.088Z,0.30
2023-04-24T01:48:39.916Z,0.20
2023-04-24T01:51:42.606Z,0.40
2023-04-24T01:54:46.994Z,0.40
2023-04-24T01:57:49.709Z,0.30
2023-04-24T02:00:52.512Z,0.40
2023-04-24T02:03:55.300Z,0.43
2023-04-24T02:06:58.017Z,0.55
2023-04-24T02:10:02.275Z,0.40
2023-04-24T02:13:05.744Z,0.40
2023-04-24T02:16:08.482Z,0.30
2023-04-24T02:19:11.420Z,0.50
2023-04-24T02:22:14.238Z,0.40
2023-04-24T02:25:18.729Z,0.22
2023-04-24T02:28:21.596Z,0.35
2023-04-24T02:31:24.324Z,0.30
2023-04-24T02:34:27.140Z,0.50
2023-04-24T02:37:29.841Z,0.45
2023-04-24T02:40:34.174Z,0.20
2023-04-24T02:43:36.847Z,0.43
2023-04-24T02:46:39.571Z,0.30
2023-04-24T02:49:43.273Z,0.40
2023-04-24T02:52:46.374Z,0.30
2023-04-24T02:55:50.320Z,0.50
2023-04-24T02:58:53.026Z,0.50
2023-04-24T03:01:55.666Z,0.35
2023-04-24T03:04:58.395Z,0.40
2023-04-24T03:08:01.531Z,0.30
2023-04-24T03:11:05.849Z,0.50
2023-04-24T03:14:08.562Z,0.40
2023-04-24T03:17:11.232Z,0.57
2023-04-24T03:20:14.040Z,0.30
2023-04-24T03:23:17.133Z,0.32
2023-04-24T03:26:21.297Z,0.30
2023-04-24T03:29:24.167Z,0.30
2023-04-24T03:32:26.916Z,0.30
2023-04-24T03:35:29.770Z,0.32
2023-04-24T03:38:32.635Z,0.40
2023-04-24T03:41:36.662Z,0.40
2023-04-24T03:44:39.392Z,0.32
2023-04-24T03:47:42.101Z,0.30
2023-04-24T03:50:44.783Z,0.40
2023-04-24T03:53:47.426Z,0.43
2023-04-24T03:56:51.489Z,0.57
2023-04-24T03:59:54.536Z,0.60
2023-04-24T04:02:57.384Z,0.40
2023-04-24T04:06:00.309Z,0.47
2023-04-24T04:09:03.174Z,0.40
2023-04-24T04:12:07.264Z,0.47
2023-04-24T04:15:10.454Z,0.43
2023-04-24T04:18:13.210Z,0.75
2023-04-24T04:21:16.270Z,0.57
2023-04-24T04:24:18.932Z,0.60
2023-04-24T04:27:23.162Z,0.60
2023-04-24T04:30:26.872Z,0.30
2023-04-24T04:33:29.592Z,0.40
2023-04-24T04:36:32.321Z,0.80
2023-04-24T04:39:35.033Z,0.50
2023-04-24T04:42:41.316Z,0.55
2023-04-24T04:45:45.960Z,0.45
2023-04-24T04:48:48.724Z,0.40
2023-04-24T04:51:51.764Z,0.50
2023-04-24T04:54:54.572Z,0.57
2023-04-24T04:57:58.592Z,0.50
2023-04-24T05:01:01.422Z,0.80
2023-04-24T05:04:04.371Z,0.60
2023-04-24T05:07:07.527Z,0.60
2023-04-24T05:10:11.456Z,0.60
2023-04-24T05:13:17.838Z,0.50
2023-04-24T05:16:23.606Z,0.43
2023-04-24T05:19:26.329Z,0.40
2023-04-24T05:22:29.053Z,0.50
2023-04-24T05:25:33.200Z,0.65
2023-04-24T05:28:37.829Z,0.50
2023-04-24T05:31:41.132Z,0.30
2023-04-24T05:34:43.974Z,1.10
2023-04-24T05:37:46.629Z,0.68
2023-04-24T05:40:49.384Z,0.70
2023-04-24T05:43:53.691Z,0.60
2023-04-24T05:46:56.831Z,0.70
2023-04-24T05:49:59.606Z,0.55
2023-04-24T05:53:03.096Z,0.73
2023-04-24T05:56:06.329Z,0.70
2023-04-24T05:59:10.608Z,0.57
2023-04-24T06:02:13.370Z,0.60
2023-04-24T06:05:16.897Z,0.70
2023-04-24T06:08:19.644Z,0.70
2023-04-24T06:11:22.374Z,0.60
2023-04-24T06:14:26.400Z,1.80
2023-04-24T06:17:29.090Z,0.80
2023-04-24T06:20:31.923Z,0.73
2023-04-24T06:23:34.672Z,1.00
2023-04-24T06:26:37.580Z,0.80
2023-04-24T06:29:41.875Z,0.82
2023-04-24T06:32:44.807Z,0.80
2023-04-24T06:35:47.680Z,1.10
2023-04-24T06:38:50.663Z,1.00
2023-04-24T06:41:53.407Z,1.00
2023-04-24T06:44:57.467Z,0.85
2023-04-24T06:48:00.427Z,0.65
2023-04-24T06:51:03.133Z,0.70
2023-04-24T06:54:06.104Z,0.82
2023-04-24T06:57:08.925Z,0.80
2023-04-24T07:00:14.767Z,1.33
2023-04-24T07:03:17.496Z,0.85
2023-04-24T07:06:23.556Z,0.80
2023-04-24T07:09:27.410Z,0.85
2023-04-24T07:12:30.422Z,0.80
2023-04-24T07:15:34.954Z,1.00
2023-04-24T07:18:38.352Z,0.70
2023-04-24T07:21:41.108Z,0.80
2023-04-24T07:24:44.167Z,1.00
2023-04-24T07:27:46.962Z,0.70
2023-04-24T07:30:51.068Z,0.80
2023-04-24T07:33:53.772Z,0.75
2023-04-24T07:36:56.624Z,0.60
2023-04-24T07:39:59.332Z,0.75
2023-04-24T07:43:01.984Z,0.82
2023-04-24T07:46:07.788Z,0.80
2023-04-24T07:49:14.144Z,0.90
2023-04-24T07:52:17.340Z,0.88
2023-04-24T07:55:23.273Z,0.82
2023-04-24T07:58:27.021Z,0.90
2023-04-24T08:01:31.517Z,0.70
2023-04-24T08:04:34.414Z,0.70
2023-04-24T08:07:37.296Z,0.68
2023-04-24T08:10:40.104Z,0.80
2023-04-24T08:13:42.801Z,0.50
2023-04-24T08:16:47.070Z,0.88
2023-04-24T08:19:50.667Z,0.95
2023-04-24T08:22:53.480Z,1.02
2023-04-24T08:25:56.200Z,0.77
2023-04-24T08:28:58.999Z,0.70
2023-04-24T08:32:03.075Z,0.63
2023-04-24T08:35:06.478Z,1.10
2023-04-24T08:38:09.068Z,0.88
2023-04-24T08:41:11.826Z,1.15
2023-04-24T08:44:16.582Z,0.80
2023-04-24T08:47:22.423Z,0.85
2023-04-24T08:50:25.249Z,1.00
2023-04-24T08:53:28.636Z,0.70
2023-04-24T08:56:32.932Z,0.80
2023-04-24T08:59:37.359Z,0.82
2023-04-24T09:02:45.131Z,0.93
2023-04-24T09:05:50.539Z,0.70
2023-04-24T09:08:56.824Z,0.60
2023-04-24T09:12:00.468Z,0.80
2023-04-24T09:15:05.075Z,2.45
2023-04-24T09:18:09.313Z,0.60
2023-04-24T09:21:12.394Z,0.85
2023-04-24T09:24:19.316Z,0.65
2023-04-24T09:27:25.795Z,0.80
2023-04-24T09:30:28.660Z,0.82
2023-04-24T09:33:32.845Z,0.70
2023-04-24T09:36:38.125Z,0.70
2023-04-24T09:39:45.055Z,0.70
2023-04-24T09:42:53.435Z,0.82
2023-04-24T09:45:59.600Z,0.80
2023-04-24T09:49:10.262Z,0.55
2023-04-24T09:52:13.723Z,0.70
2023-04-24T09:55:21.293Z,0.77
2023-04-24T09:58:28.737Z,0.60
2023-04-24T10:01:33.356Z,0.60
2023-04-24T10:04:38.443Z,0.68
2023-04-24T10:07:41.699Z,0.73
2023-04-24T10:10:46.685Z,0.70
2023-04-24T10:13:49.932Z,0.98
2023-04-24T10:16:57.574Z,0.70
2023-04-24T10:20:03.194Z,0.85
2023-04-24T10:23:07.245Z,0.70
2023-04-24T10:26:11.534Z,0.70
2023-04-24T10:29:16.600Z,0.60
2023-04-24T10:32:19.448Z,0.70
2023-04-24T10:35:27.915Z,0.80
2023-04-24T10:38:32.763Z,0.80
2023-04-24T10:41:36.103Z,0.90
2023-04-24T10:44:38.917Z,0.70
2023-04-24T10:47:43.329Z,0.70
2023-04-24T10:50:49.306Z,0.73
2023-04-24T10:53:52.631Z,1.00
2023-04-24T10:57:15.803Z,0.90
2023-04-24T11:00:22.923Z,0.90
2023-04-24T11:03:30.281Z,0.80
2023-04-24T11:06:37.032Z,0.50
2023-04-24T11:09:41.632Z,0.50
2023-04-24T11:12:45.948Z,0.57
2023-04-24T11:16:16.166Z,0.57
2023-04-24T11:19:26.203Z,0.73
2023-04-24T11:22:35.144Z,0.70
2023-04-24T11:25:38.083Z,0.90
2023-04-24T11:28:47.105Z,0.77
2023-04-24T11:31:52.227Z,0.88
2023-04-24T11:34:57.189Z,0.88
2023-04-24T11:38:22.682Z,0.77
2023-04-24T11:41:27.429Z,0.80
2023-04-24T11:44:32.832Z,0.70
2023-04-24T11:47:35.794Z,0.70
2023-04-24T11:50:38.744Z,0.63
2023-04-24T11:53:43.574Z,0.75
2023-04-24T11:56:48.926Z,0.80
2023-04-24T11:59:52.069Z,0.70
2023-04-24T12:03:07.808Z,0.65
2023-04-24T12:06:13.046Z,0.82
2023-04-24T12:09:18.550Z,0.73
2023-04-24T12:12:21.469Z,0.70
2023-04-24T12:15:24.902Z,0.80
2023-04-24T12:18:28.346Z,0.60
2023-04-24T12:21:32.944Z,0.65
2023-04-24T12:24:37.221Z,0.80
2023-04-24T12:27:40.228Z,0.70
2023-04-24T12:30:45.712Z,0.80
2023-04-24T12:33:48.867Z,0.50
2023-04-24T12:36:51.556Z,0.63
2023-04-24T12:40:03.148Z,0.70
2023-04-24T12:43:16.013Z,0.50
2023-04-24T12:46:20.560Z,0.90
2023-04-24T12:49:25.411Z,1.15
2023-04-24T12:52:29.205Z,0.73
2023-04-24T12:55:33.434Z,0.80
2023-04-24T12:58:36.261Z,0.57
2023-04-24T13:01:39.259Z,0.50
2023-04-24T13:04:42.078Z,0.60
2023-04-24T13:07:44.988Z,0.60
2023-04-24T13:10:49.255Z,0.68
2023-04-24T13:13:54.890Z,0.80
2023-04-24T13:16:58.247Z,0.70
2023-04-24T13:20:01.412Z,0.90
2023-04-24T13:23:04.471Z,0.82
2023-04-24T13:26:08.610Z,0.90
2023-04-24T13:29:11.857Z,1.05
2023-04-24T13:32:15.007Z,0.90
2023-04-24T13:35:18.165Z,0.98
2023-04-24T13:38:22.505Z,1.10
2023-04-24T13:41:26.927Z,0.98
2023-04-24T13:44:29.806Z,1.02
2023-04-24T13:47:32.860Z,1.08
2023-04-24T13:50:35.743Z,0.70
2023-04-24T13:53:39.704Z,0.70
2023-04-24T13:56:44.117Z,0.70
2023-04-24T13:59:47.357Z,0.65
2023-04-24T14:02:50.498Z,1.30
2023-04-24T14:05:53.406Z,1.00
2023-04-24T14:08:56.463Z,0.90
2023-04-24T14:12:02.064Z,0.80
2023-04-24T14:15:06.055Z,0.70
2023-04-24T14:18:09.103Z,0.85
2023-04-24T14:21:12.041Z,0.70
2023-04-24T14:24:14.912Z,0.90
2023-04-24T14:27:19.192Z,0.82
2023-04-24T14:30:22.206Z,0.93
2023-04-24T14:33:25.132Z,1.23
2023-04-24T14:36:27.874Z,0.82
2023-04-24T14:39:30.781Z,1.17
2023-04-24T14:42:35.432Z,0.80
2023-04-24T14:45:39.222Z,0.82
2023-04-24T14:48:42.314Z,0.95
2023-04-24T14:51:45.072Z,0.95
2023-04-24T14:54:47.932Z,0.80
2023-04-24T14:57:52.324Z,0.98
2023-04-24T15:00:55.563Z,0.98
2023-04-24T15:03:58.827Z,1.00
2023-04-24T15:07:01.845Z,1.00
2023-04-24T15:10:05.564Z,1.08
2023-04-24T15:13:10.095Z,1.00
2023-04-24T15:16:13.078Z,0.90
2023-04-24T15:19:15.939Z,1.00
2023-04-24T15:22:18.782Z,0.98
2023-04-24T15:25:21.609Z,0.85
2023-04-24T15:28:26.937Z,0.80
2023-04-24T15:31:29.798Z,1.08
2023-04-24T15:34:33.094Z,1.10
2023-04-24T15:37:36.013Z,1.05
2023-04-24T15:40:39.103Z,1.10
2023-04-24T15:43:44.117Z,1.23
2023-04-24T15:46:46.898Z,1.20
2023-04-24T15:49:49.663Z,1.20
2023-04-24T15:52:52.381Z,1.02
2023-04-24T15:55:57.172Z,1.10
2023-04-24T15:59:01.513Z,1.20
2023-04-24T16:02:04.971Z,0.80
2023-04-24T16:05:08.883Z,1.00
2023-04-24T16:08:11.682Z,0.90
2023-04-24T16:11:14.416Z,1.00
2023-04-24T16:14:18.479Z,0.90
2023-04-24T16:17:21.230Z,1.02
2023-04-24T16:20:24.139Z,0.80
2023-04-24T16:23:27.109Z,1.10
2023-04-24T16:26:29.880Z,1.10
2023-04-24T16:29:34.043Z,0.70
2023-04-24T16:32:36.866Z,0.80
2023-04-24T16:35:39.864Z,0.98
2023-04-24T16:38:43.517Z,1.50
2023-04-24T16:41:47.030Z,0.70
2023-04-24T16:44:52.106Z,1.02
2023-04-24T16:48:04.473Z,1.00
2023-04-24T16:51:08.483Z,0.95
2023-04-24T16:54:11.857Z,0.70
2023-04-24T16:57:16.274Z,0.65
2023-04-24T17:00:20.846Z,0.80
2023-04-24T17:03:23.913Z,0.60
2023-04-24T17:06:26.785Z,0.73
2023-04-24T17:09:29.640Z,0.70
2023-04-24T17:12:32.449Z,0.70
2023-04-24T17:15:36.602Z,0.80
2023-04-24T17:18:39.520Z,0.80
2023-04-24T17:21:42.511Z,0.60
2023-04-24T17:24:45.402Z,0.70
2023-04-24T17:27:48.374Z,0.90
2023-04-24T17:30:54.543Z,0.80
2023-04-24T17:33:57.641Z,1.02
2023-04-24T17:37:00.531Z,0.80
2023-04-24T17:40:04.307Z,1.02
2023-04-24T17:43:07.118Z,1.30
2023-04-24T17:46:11.301Z,1.23
2023-04-24T17:49:14.122Z,1.40
2023-04-24T17:52:17.715Z,1.17
2023-04-24T17:55:20.920Z,1.05
2023-04-24T17:58:23.801Z,1.10
2023-04-24T18:01:29.105Z,1.00
2023-04-24T18:04:32.118Z,1.10
2023-04-24T18:07:35.057Z,0.95
2023-04-24T18:10:38.035Z,0.80
2023-04-24T18:13:42.054Z,1.00
2023-04-24T18:16:46.393Z,1.20
2023-04-24T18:19:49.241Z,1.00
2023-04-24T18:22:51.993Z,1.05
2023-04-24T18:25:55.297Z,1.10
2023-04-24T18:28:58.099Z,0.98
2023-04-24T18:32:04.908Z,1.25
2023-04-24T18:35:08.279Z,0.90
2023-04-24T18:38:11.189Z,1.00
2023-04-24T18:41:14.540Z,1.00
2023-04-24T18:44:17.295Z,1.60
2023-04-24T18:47:21.867Z,1.45
2023-04-24T18:50:25.724Z,2.05
2023-04-24T18:53:28.546Z,1.38
2023-04-24T18:56:31.378Z,1.40
2023-04-24T18:59:34.212Z,1.38
2023-04-24T19:02:38.624Z,3.28
2023-04-24T19:05:41.481Z,1.50
2023-04-24T19:08:44.899Z,1.27
2023-04-24T19:11:47.746Z,2.00
2023-04-24T19:14:51.546Z,2.10
2023-04-24T19:17:55.774Z,3.67
2023-04-24T19:20:59.025Z,2.00
2023-04-24T19:24:02.121Z,2.03
2023-04-24T19:27:04.844Z,1.50
2023-04-24T19:30:08.972Z,1.10
2023-04-24T19:33:13.213Z,1.23
2023-04-24T19:36:17.742Z,1.13
2023-04-24T19:39:20.593Z,1.17
2023-04-24T19:42:35.905Z,1.67
2023-04-24T19:45:45.331Z,1.30
2023-04-24T19:48:49.893Z,1.30
2023-04-24T19:51:52.872Z,1.35
2023-04-24T19:54:56.084Z,2.03
2023-04-24T19:57:58.823Z,1.90
2023-04-24T20:01:01.901Z,1.20
2023-04-24T20:04:07.756Z,1.20
2023-04-24T20:07:10.890Z,1.10
2023-04-24T20:10:13.701Z,1.60
2023-04-24T20:13:16.641Z,4.35
2023-04-24T20:16:19.594Z,4.00
2023-04-24T20:19:23.780Z,2.30
2023-04-24T20:22:26.661Z,2.40
2023-04-24T20:25:29.451Z,1.17
2023-04-24T20:28:32.112Z,1.77
2023-04-24T20:31:34.900Z,1.47
2023-04-24T20:34:38.922Z,1.60
2023-04-24T20:37:42.395Z,1.90
2023-04-24T20:40:57.112Z,2.25
2023-04-24T20:44:01.583Z,2.00
2023-04-24T20:47:04.838Z,1.80
2023-04-24T20:50:10.382Z,1.50
2023-04-24T20:53:13.212Z,1.50
2023-04-24T20:56:16.445Z,1.40
2023-04-24T20:59:19.216Z,1.60
2023-04-24T21:02:22.103Z,1.47
2023-04-24T21:05:26.197Z,1.25
2023-04-24T21:08:29.268Z,1.13
2023-04-24T21:11:32.137Z,1.10
2023-04-24T21:14:34.961Z,1.10
2023-04-24T21:17:37.877Z,1.13
2023-04-24T21:20:41.973Z,1.20
2023-04-24T21:23:44.770Z,1.40
2023-04-24T21:26:47.828Z,1.63
2023-04-24T21:29:50.767Z,1.20
2023-04-24T21:32:53.943Z,1.50
2023-04-24T21:35:58.215Z,1.10
2023-04-24T21:39:00.951Z,1.30
2023-04-24T21:42:03.875Z,1.43
2023-04-24T21:45:07.651Z,1.50
2023-04-24T21:48:10.766Z,1.20
2023-04-24T21:51:16.614Z,1.00
2023-04-24T21:54:20.500Z,1.20
2023-04-24T21:57:23.182Z,1.10
2023-04-24T22:00:26.072Z,1.30
2023-04-24T22:03:29.734Z,1.07
2023-04-24T22:06:34.919Z,1.33
2023-04-24T22:09:37.576Z,1.50
2023-04-24T22:12:40.346Z,1.20
2023-04-24T22:15:43.059Z,1.23
2023-04-24T22:18:47.707Z,1.43
2023-04-24T22:21:52.045Z,1.33
2023-04-24T22:24:55.642Z,1.40
2023-04-24T22:27:58.288Z,1.40
2023-04-24T22:31:01.245Z,1.30
2023-04-24T22:34:04.074Z,3.03
2023-04-24T22:37:08.820Z,1.33
2023-04-24T22:40:12.405Z,1.63
2023-04-24T22:43:15.220Z,1.60
2023-04-24T22:46:18.362Z,1.37
2023-04-24T22:49:21.548Z,1.50
2023-04-24T22:52:26.196Z,1.60
2023-04-24T22:55:29.236Z,1.33
2023-04-24T22:58:32.034Z,1.50
2023-04-24T23:01:34.745Z,1.70
2023-04-24T23:04:37.549Z,1.80
2023-04-24T23:07:41.836Z,1.63
2023-04-24T23:10:44.629Z,1.37
2023-04-24T23:13:47.518Z,1.40
2023-04-24T23:16:50.444Z,1.70
2023-04-24T23:19:53.155Z,1.57
2023-04-24T23:22:57.454Z,1.10
2023-04-24T23:26:00.868Z,1.20
2023-04-24T23:29:03.665Z,1.50
2023-04-24T23:32:06.895Z,1.00
2023-04-24T23:35:10.395Z,1.10
2023-04-24T23:38:14.411Z,0.83
2023-04-24T23:41:17.085Z,1.13
2023-04-24T23:44:19.834Z,1.00
2023-04-24T23:47:22.728Z,1.00
2023-04-24T23:50:25.932Z,1.17
2023-04-24T23:53:30.655Z,1.00
2023-04-24T23:56:33.354Z,0.87
2023-04-24T23:59:36.426Z,1.10
